sensor_id;sensor_type;location;lat;lon;timestamp;P1;durP1;ratioP1;P2;durP2;ratioP2
20623;SDS011;10471;42.736;23.346;2023-09-12T00:00:03;7.60;;;4.50;;
20623;SDS011;10471;42.736;23.346;2023-09-12T00:02:30;8.50;;;5.07;;
20623;SDS011;10471;42.736;23.346;2023-09-12T00:04:55;8.43;;;5.03;;
20623;SDS011;10471;42.736;23.346;2023-09-12T00:07:21;9.43;;;4.60;;
20623;SDS011;10471;42.736;23.346;2023-09-12T00:09:46;10.83;;;4.70;;
20623;SDS011;10471;42.736;23.346;2023-09-12T00:12:15;10.67;;;5.20;;
20623;SDS011;10471;42.736;23.346;2023-09-12T00:14:41;9.27;;;5.60;;
20623;SDS011;10471;42.736;23.346;2023-09-12T00:17:06;9.87;;;5.37;;
20623;SDS011;10471;42.736;23.346;2023-09-12T00:19:32;10.70;;;5.20;;
20623;SDS011;10471;42.736;23.346;2023-09-12T00:21:57;8.70;;;5.20;;
20623;SDS011;10471;42.736;23.346;2023-09-12T00:24:23;7.17;;;4.37;;
20623;SDS011;10471;42.736;23.346;2023-09-12T00:26:48;6.40;;;4.43;;
20623;SDS011;10471;42.736;23.346;2023-09-12T00:29:14;9.37;;;4.80;;
20623;SDS011;10471;42.736;23.346;2023-09-12T00:31:39;12.40;;;4.63;;
20623;SDS011;10471;42.736;23.346;2023-09-12T00:34:05;16.13;;;5.23;;
20623;SDS011;10471;42.736;23.346;2023-09-12T00:36:30;8.17;;;4.60;;
20623;SDS011;10471;42.736;23.346;2023-09-12T00:38:56;9.43;;;4.60;;
20623;SDS011;10471;42.736;23.346;2023-09-12T00:41:21;6.87;;;4.30;;
20623;SDS011;10471;42.736;23.346;2023-09-12T00:43:47;10.27;;;4.83;;
20623;SDS011;10471;42.736;23.346;2023-09-12T00:46:14;8.80;;;5.13;;
20623;SDS011;10471;42.736;23.346;2023-09-12T00:48:43;8.03;;;4.87;;
20623;SDS011;10471;42.736;23.346;2023-09-12T00:51:11;10.93;;;4.90;;
20623;SDS011;10471;42.736;23.346;2023-09-12T00:53:39;8.77;;;4.90;;
20623;SDS011;10471;42.736;23.346;2023-09-12T00:56:04;9.20;;;4.73;;
20623;SDS011;10471;42.736;23.346;2023-09-12T00:58:31;10.43;;;5.10;;
20623;SDS011;10471;42.736;23.346;2023-09-12T01:00:58;7.17;;;5.17;;
20623;SDS011;10471;42.736;23.346;2023-09-12T01:03:23;7.43;;;5.03;;
20623;SDS011;10471;42.736;23.346;2023-09-12T01:05:49;7.60;;;5.27;;
20623;SDS011;10471;42.736;23.346;2023-09-12T01:08:16;11.17;;;5.20;;
20623;SDS011;10471;42.736;23.346;2023-09-12T01:10:42;9.83;;;5.40;;
20623;SDS011;10471;42.736;23.346;2023-09-12T01:13:11;9.33;;;4.93;;
20623;SDS011;10471;42.736;23.346;2023-09-12T01:15:38;8.93;;;5.67;;
20623;SDS011;10471;42.736;23.346;2023-09-12T01:18:04;11.47;;;5.60;;
20623;SDS011;10471;42.736;23.346;2023-09-12T01:20:31;9.40;;;5.20;;
20623;SDS011;10471;42.736;23.346;2023-09-12T01:23:00;8.47;;;5.07;;
20623;SDS011;10471;42.736;23.346;2023-09-12T01:25:55;9.63;;;5.93;;
20623;SDS011;10471;42.736;23.346;2023-09-12T01:28:40;10.83;;;5.67;;
20623;SDS011;10471;42.736;23.346;2023-09-12T01:31:09;10.90;;;5.50;;
20623;SDS011;10471;42.736;23.346;2023-09-12T01:33:35;11.93;;;5.83;;
20623;SDS011;10471;42.736;23.346;2023-09-12T01:36:00;10.60;;;5.57;;
20623;SDS011;10471;42.736;23.346;2023-09-12T01:38:26;9.37;;;5.20;;
20623;SDS011;10471;42.736;23.346;2023-09-12T01:40:52;9.80;;;6.03;;
20623;SDS011;10471;42.736;23.346;2023-09-12T01:43:21;10.80;;;5.57;;
20623;SDS011;10471;42.736;23.346;2023-09-12T01:45:49;11.90;;;5.73;;
20623;SDS011;10471;42.736;23.346;2023-09-12T01:48:21;12.20;;;5.73;;
20623;SDS011;10471;42.736;23.346;2023-09-12T01:50:49;10.27;;;5.43;;
20623;SDS011;10471;42.736;23.346;2023-09-12T01:53:15;11.67;;;6.00;;
20623;SDS011;10471;42.736;23.346;2023-09-12T01:55:42;9.17;;;5.73;;
20623;SDS011;10471;42.736;23.346;2023-09-12T01:58:09;14.20;;;5.57;;
20623;SDS011;10471;42.736;23.346;2023-09-12T02:00:36;15.50;;;6.03;;
20623;SDS011;10471;42.736;23.346;2023-09-12T02:03:03;13.67;;;5.93;;
20623;SDS011;10471;42.736;23.346;2023-09-12T02:05:28;10.13;;;5.73;;
20623;SDS011;10471;42.736;23.346;2023-09-12T02:07:54;10.37;;;5.70;;
20623;SDS011;10471;42.736;23.346;2023-09-12T02:10:19;15.13;;;5.93;;
20623;SDS011;10471;42.736;23.346;2023-09-12T02:12:45;11.37;;;5.90;;
20623;SDS011;10471;42.736;23.346;2023-09-12T02:15:10;11.20;;;5.33;;
20623;SDS011;10471;42.736;23.346;2023-09-12T02:17:37;12.43;;;5.67;;
20623;SDS011;10471;42.736;23.346;2023-09-12T02:20:04;10.20;;;6.30;;
20623;SDS011;10471;42.736;23.346;2023-09-12T02:22:31;9.40;;;5.77;;
20623;SDS011;10471;42.736;23.346;2023-09-12T02:24:56;12.67;;;6.13;;
20623;SDS011;10471;42.736;23.346;2023-09-12T02:27:22;9.83;;;6.00;;
20623;SDS011;10471;42.736;23.346;2023-09-12T02:29:47;10.87;;;5.47;;
20623;SDS011;10471;42.736;23.346;2023-09-12T02:32:12;11.37;;;6.10;;
20623;SDS011;10471;42.736;23.346;2023-09-12T02:34:38;10.37;;;5.70;;
20623;SDS011;10471;42.736;23.346;2023-09-12T02:37:03;13.20;;;6.13;;
20623;SDS011;10471;42.736;23.346;2023-09-12T02:39:28;7.97;;;5.77;;
20623;SDS011;10471;42.736;23.346;2023-09-12T02:41:54;24.03;;;6.40;;
20623;SDS011;10471;42.736;23.346;2023-09-12T02:44:19;18.17;;;6.33;;
20623;SDS011;10471;42.736;23.346;2023-09-12T02:46:45;15.27;;;6.10;;
20623;SDS011;10471;42.736;23.346;2023-09-12T02:49:10;18.43;;;6.30;;
20623;SDS011;10471;42.736;23.346;2023-09-12T02:51:39;23.20;;;7.17;;
20623;SDS011;10471;42.736;23.346;2023-09-12T02:54:05;15.87;;;6.37;;
20623;SDS011;10471;42.736;23.346;2023-09-12T02:56:31;14.10;;;7.10;;
20623;SDS011;10471;42.736;23.346;2023-09-12T02:58:56;12.70;;;6.13;;
20623;SDS011;10471;42.736;23.346;2023-09-12T03:01:21;15.87;;;6.57;;
20623;SDS011;10471;42.736;23.346;2023-09-12T03:03:47;14.80;;;5.97;;
20623;SDS011;10471;42.736;23.346;2023-09-12T03:06:15;11.27;;;5.53;;
20623;SDS011;10471;42.736;23.346;2023-09-12T03:08:42;13.60;;;6.03;;
20623;SDS011;10471;42.736;23.346;2023-09-12T03:11:08;9.90;;;5.83;;
20623;SDS011;10471;42.736;23.346;2023-09-12T03:13:35;12.00;;;6.03;;
20623;SDS011;10471;42.736;23.346;2023-09-12T03:16:05;12.30;;;6.33;;
20623;SDS011;10471;42.736;23.346;2023-09-12T03:18:37;9.83;;;5.83;;
20623;SDS011;10471;42.736;23.346;2023-09-12T03:21:03;16.60;;;6.07;;
20623;SDS011;10471;42.736;23.346;2023-09-12T03:23:28;9.50;;;6.30;;
20623;SDS011;10471;42.736;23.346;2023-09-12T03:25:53;11.67;;;5.83;;
20623;SDS011;10471;42.736;23.346;2023-09-12T03:28:19;13.53;;;6.00;;
20623;SDS011;10471;42.736;23.346;2023-09-12T03:30:44;14.30;;;5.63;;
20623;SDS011;10471;42.736;23.346;2023-09-12T03:33:10;14.33;;;6.13;;
20623;SDS011;10471;42.736;23.346;2023-09-12T03:35:35;19.53;;;6.03;;
20623;SDS011;10471;42.736;23.346;2023-09-12T03:38:01;22.37;;;7.23;;
20623;SDS011;10471;42.736;23.346;2023-09-12T03:40:29;15.70;;;6.80;;
20623;SDS011;10471;42.736;23.346;2023-09-12T03:42:55;13.27;;;6.80;;
20623;SDS011;10471;42.736;23.346;2023-09-12T03:45:22;17.10;;;7.00;;
20623;SDS011;10471;42.736;23.346;2023-09-12T03:47:48;14.30;;;6.93;;
20623;SDS011;10471;42.736;23.346;2023-09-12T03:50:13;12.17;;;6.50;;
20623;SDS011;10471;42.736;23.346;2023-09-12T03:52:39;13.60;;;5.90;;
20623;SDS011;10471;42.736;23.346;2023-09-12T03:55:05;10.90;;;6.57;;
20623;SDS011;10471;42.736;23.346;2023-09-12T03:57:30;14.70;;;6.13;;
20623;SDS011;10471;42.736;23.346;2023-09-12T03:59:56;12.03;;;6.33;;
20623;SDS011;10471;42.736;23.346;2023-09-12T04:02:22;14.07;;;6.13;;
20623;SDS011;10471;42.736;23.346;2023-09-12T04:04:47;9.80;;;6.60;;
20623;SDS011;10471;42.736;23.346;2023-09-12T04:07:12;15.90;;;6.47;;
20623;SDS011;10471;42.736;23.346;2023-09-12T04:09:38;10.37;;;5.77;;
20623;SDS011;10471;42.736;23.346;2023-09-12T04:12:03;14.67;;;5.80;;
20623;SDS011;10471;42.736;23.346;2023-09-12T04:14:31;12.03;;;6.20;;
20623;SDS011;10471;42.736;23.346;2023-09-12T04:16:57;16.93;;;6.37;;
20623;SDS011;10471;42.736;23.346;2023-09-12T04:19:22;10.03;;;5.77;;
20623;SDS011;10471;42.736;23.346;2023-09-12T04:21:47;10.17;;;5.93;;
20623;SDS011;10471;42.736;23.346;2023-09-12T04:24:13;11.77;;;5.80;;
20623;SDS011;10471;42.736;23.346;2023-09-12T04:26:38;16.43;;;6.37;;
20623;SDS011;10471;42.736;23.346;2023-09-12T04:29:04;10.30;;;6.70;;
20623;SDS011;10471;42.736;23.346;2023-09-12T04:31:29;23.80;;;7.20;;
20623;SDS011;10471;42.736;23.346;2023-09-12T04:33:54;23.47;;;8.03;;
20623;SDS011;10471;42.736;23.346;2023-09-12T04:36:23;22.30;;;7.13;;
20623;SDS011;10471;42.736;23.346;2023-09-12T04:38:48;22.77;;;7.30;;
20623;SDS011;10471;42.736;23.346;2023-09-12T04:41:13;20.10;;;6.93;;
20623;SDS011;10471;42.736;23.346;2023-09-12T04:43:42;27.50;;;7.80;;
20623;SDS011;10471;42.736;23.346;2023-09-12T04:46:11;32.00;;;7.67;;
20623;SDS011;10471;42.736;23.346;2023-09-12T04:48:37;25.03;;;7.37;;
20623;SDS011;10471;42.736;23.346;2023-09-12T04:51:03;15.33;;;6.03;;
20623;SDS011;10471;42.736;23.346;2023-09-12T04:53:29;13.50;;;5.60;;
20623;SDS011;10471;42.736;23.346;2023-09-12T04:56:01;12.00;;;5.70;;
20623;SDS011;10471;42.736;23.346;2023-09-12T04:58:27;15.37;;;5.10;;
20623;SDS011;10471;42.736;23.346;2023-09-12T05:00:53;13.83;;;5.63;;
20623;SDS011;10471;42.736;23.346;2023-09-12T05:03:19;12.00;;;5.57;;
20623;SDS011;10471;42.736;23.346;2023-09-12T05:05:48;8.57;;;5.23;;
20623;SDS011;10471;42.736;23.346;2023-09-12T05:08:15;12.03;;;6.10;;
20623;SDS011;10471;42.736;23.346;2023-09-12T05:10:40;14.40;;;5.70;;
20623;SDS011;10471;42.736;23.346;2023-09-12T05:13:05;11.20;;;5.30;;
20623;SDS011;10471;42.736;23.346;2023-09-12T05:15:31;13.30;;;5.57;;
20623;SDS011;10471;42.736;23.346;2023-09-12T05:17:56;8.60;;;5.70;;
20623;SDS011;10471;42.736;23.346;2023-09-12T05:20:22;7.73;;;5.10;;
20623;SDS011;10471;42.736;23.346;2023-09-12T05:22:47;7.90;;;5.30;;
20623;SDS011;10471;42.736;23.346;2023-09-12T05:25:13;10.77;;;5.60;;
20623;SDS011;10471;42.736;23.346;2023-09-12T05:27:38;13.57;;;5.73;;
20623;SDS011;10471;42.736;23.346;2023-09-12T05:30:04;7.07;;;5.10;;
20623;SDS011;10471;42.736;23.346;2023-09-12T05:32:30;10.37;;;5.47;;
20623;SDS011;10471;42.736;23.346;2023-09-12T05:34:56;8.13;;;5.20;;
20623;SDS011;10471;42.736;23.346;2023-09-12T05:37:21;9.90;;;5.57;;
20623;SDS011;10471;42.736;23.346;2023-09-12T05:39:46;13.60;;;5.50;;
20623;SDS011;10471;42.736;23.346;2023-09-12T05:42:12;11.20;;;6.07;;
20623;SDS011;10471;42.736;23.346;2023-09-12T05:44:38;13.63;;;5.67;;
20623;SDS011;10471;42.736;23.346;2023-09-12T05:47:04;13.10;;;6.30;;
20623;SDS011;10471;42.736;23.346;2023-09-12T05:49:29;9.30;;;6.13;;
20623;SDS011;10471;42.736;23.346;2023-09-12T05:51:55;11.87;;;6.70;;
20623;SDS011;10471;42.736;23.346;2023-09-12T05:54:20;13.37;;;6.43;;
20623;SDS011;10471;42.736;23.346;2023-09-12T05:56:45;13.80;;;5.77;;
20623;SDS011;10471;42.736;23.346;2023-09-12T05:59:13;12.03;;;6.47;;
20623;SDS011;10471;42.736;23.346;2023-09-12T06:01:38;9.07;;;5.97;;
20623;SDS011;10471;42.736;23.346;2023-09-12T06:04:05;13.93;;;6.63;;
20623;SDS011;10471;42.736;23.346;2023-09-12T06:06:31;11.33;;;6.03;;
20623;SDS011;10471;42.736;23.346;2023-09-12T06:08:56;10.53;;;6.00;;
20623;SDS011;10471;42.736;23.346;2023-09-12T06:11:23;12.50;;;6.20;;
20623;SDS011;10471;42.736;23.346;2023-09-12T06:13:49;14.87;;;6.47;;
20623;SDS011;10471;42.736;23.346;2023-09-12T06:16:15;14.67;;;6.70;;
20623;SDS011;10471;42.736;23.346;2023-09-12T06:18:40;9.03;;;6.07;;
20623;SDS011;10471;42.736;23.346;2023-09-12T06:21:05;11.37;;;5.90;;
20623;SDS011;10471;42.736;23.346;2023-09-12T06:23:33;12.30;;;6.07;;
20623;SDS011;10471;42.736;23.346;2023-09-12T06:25:59;9.87;;;5.70;;
20623;SDS011;10471;42.736;23.346;2023-09-12T06:28:28;11.60;;;5.87;;
20623;SDS011;10471;42.736;23.346;2023-09-12T06:30:55;12.67;;;5.93;;
20623;SDS011;10471;42.736;23.346;2023-09-12T06:33:22;13.23;;;6.00;;
20623;SDS011;10471;42.736;23.346;2023-09-12T06:35:48;9.23;;;5.27;;
20623;SDS011;10471;42.736;23.346;2023-09-12T06:38:17;10.37;;;4.80;;
20623;SDS011;10471;42.736;23.346;2023-09-12T06:40:46;10.70;;;4.70;;
20623;SDS011;10471;42.736;23.346;2023-09-12T06:43:12;6.80;;;3.87;;
20623;SDS011;10471;42.736;23.346;2023-09-12T06:45:38;9.90;;;4.37;;
20623;SDS011;10471;42.736;23.346;2023-09-12T06:48:05;8.73;;;4.57;;
20623;SDS011;10471;42.736;23.346;2023-09-12T06:50:30;7.80;;;4.33;;
20623;SDS011;10471;42.736;23.346;2023-09-12T06:52:56;12.60;;;4.57;;
20623;SDS011;10471;42.736;23.346;2023-09-12T06:55:21;7.93;;;4.83;;
20623;SDS011;10471;42.736;23.346;2023-09-12T06:57:46;10.10;;;4.70;;
20623;SDS011;10471;42.736;23.346;2023-09-12T07:00:12;8.63;;;4.80;;
20623;SDS011;10471;42.736;23.346;2023-09-12T07:02:38;8.43;;;4.77;;
20623;SDS011;10471;42.736;23.346;2023-09-12T07:05:04;7.03;;;4.27;;
20623;SDS011;10471;42.736;23.346;2023-09-12T07:07:30;11.23;;;4.17;;
20623;SDS011;10471;42.736;23.346;2023-09-12T07:09:56;6.63;;;4.13;;
20623;SDS011;10471;42.736;23.346;2023-09-12T07:12:22;9.73;;;4.03;;
20623;SDS011;10471;42.736;23.346;2023-09-12T07:14:47;9.80;;;4.00;;
20623;SDS011;10471;42.736;23.346;2023-09-12T07:17:12;7.43;;;3.70;;
20623;SDS011;10471;42.736;23.346;2023-09-12T07:19:38;7.83;;;3.50;;
20623;SDS011;10471;42.736;23.346;2023-09-12T07:22:03;5.20;;;3.03;;
20623;SDS011;10471;42.736;23.346;2023-09-12T07:24:29;5.37;;;3.57;;
20623;SDS011;10471;42.736;23.346;2023-09-12T07:26:54;4.40;;;2.70;;
20623;SDS011;10471;42.736;23.346;2023-09-12T07:29:19;4.17;;;2.63;;
20623;SDS011;10471;42.736;23.346;2023-09-12T07:31:45;4.37;;;3.00;;
20623;SDS011;10471;42.736;23.346;2023-09-12T07:34:10;5.87;;;2.80;;
20623;SDS011;10471;42.736;23.346;2023-09-12T07:36:37;6.73;;;2.80;;
20623;SDS011;10471;42.736;23.346;2023-09-12T07:39:03;4.57;;;2.90;;
20623;SDS011;10471;42.736;23.346;2023-09-12T07:41:29;8.20;;;2.60;;
20623;SDS011;10471;42.736;23.346;2023-09-12T07:43:55;5.07;;;2.67;;
20623;SDS011;10471;42.736;23.346;2023-09-12T07:46:20;5.87;;;2.50;;
20623;SDS011;10471;42.736;23.346;2023-09-12T07:48:46;5.30;;;2.30;;
20623;SDS011;10471;42.736;23.346;2023-09-12T07:51:12;5.70;;;2.50;;
20623;SDS011;10471;42.736;23.346;2023-09-12T07:53:39;5.43;;;2.40;;
20623;SDS011;10471;42.736;23.346;2023-09-12T07:56:06;6.57;;;2.50;;
20623;SDS011;10471;42.736;23.346;2023-09-12T07:58:32;7.00;;;2.40;;
20623;SDS011;10471;42.736;23.346;2023-09-12T08:00:57;8.73;;;3.13;;
20623;SDS011;10471;42.736;23.346;2023-09-12T08:03:23;8.80;;;2.33;;
20623;SDS011;10471;42.736;23.346;2023-09-12T08:05:55;5.40;;;2.20;;
20623;SDS011;10471;42.736;23.346;2023-09-12T08:08:21;3.93;;;2.50;;
20623;SDS011;10471;42.736;23.346;2023-09-12T08:10:47;6.80;;;2.30;;
20623;SDS011;10471;42.736;23.346;2023-09-12T08:13:12;4.87;;;2.30;;
20623;SDS011;10471;42.736;23.346;2023-09-12T08:15:37;6.90;;;2.60;;
20623;SDS011;10471;42.736;23.346;2023-09-12T08:18:03;5.07;;;2.40;;
20623;SDS011;10471;42.736;23.346;2023-09-12T08:20:29;5.90;;;2.17;;
20623;SDS011;10471;42.736;23.346;2023-09-12T08:22:54;5.47;;;2.20;;
20623;SDS011;10471;42.736;23.346;2023-09-12T08:25:19;11.47;;;2.20;;
20623;SDS011;10471;42.736;23.346;2023-09-12T08:27:45;5.53;;;2.00;;
20623;SDS011;10471;42.736;23.346;2023-09-12T08:30:11;8.80;;;2.57;;
20623;SDS011;10471;42.736;23.346;2023-09-12T08:32:38;8.20;;;2.30;;
20623;SDS011;10471;42.736;23.346;2023-09-12T08:35:05;9.90;;;2.00;;
20623;SDS011;10471;42.736;23.346;2023-09-12T08:37:31;6.50;;;2.40;;
20623;SDS011;10471;42.736;23.346;2023-09-12T08:39:57;8.13;;;2.43;;
20623;SDS011;10471;42.736;23.346;2023-09-12T08:42:24;6.90;;;2.30;;
20623;SDS011;10471;42.736;23.346;2023-09-12T08:44:52;8.23;;;2.10;;
20623;SDS011;10471;42.736;23.346;2023-09-12T08:47:18;7.27;;;2.40;;
20623;SDS011;10471;42.736;23.346;2023-09-12T08:49:47;6.57;;;2.10;;
20623;SDS011;10471;42.736;23.346;2023-09-12T08:52:13;3.27;;;1.87;;
20623;SDS011;10471;42.736;23.346;2023-09-12T08:54:38;10.20;;;2.57;;
20623;SDS011;10471;42.736;23.346;2023-09-12T08:57:04;6.67;;;2.10;;
20623;SDS011;10471;42.736;23.346;2023-09-12T08:59:31;6.93;;;2.20;;
20623;SDS011;10471;42.736;23.346;2023-09-12T09:01:59;6.33;;;2.47;;
20623;SDS011;10471;42.736;23.346;2023-09-12T09:04:26;8.83;;;2.53;;
20623;SDS011;10471;42.736;23.346;2023-09-12T09:06:56;8.23;;;2.40;;
20623;SDS011;10471;42.736;23.346;2023-09-12T09:09:22;11.57;;;2.50;;
20623;SDS011;10471;42.736;23.346;2023-09-12T09:11:49;12.63;;;2.40;;
20623;SDS011;10471;42.736;23.346;2023-09-12T09:14:15;7.47;;;2.23;;
20623;SDS011;10471;42.736;23.346;2023-09-12T09:16:40;9.70;;;2.17;;
20623;SDS011;10471;42.736;23.346;2023-09-12T09:19:06;6.53;;;2.50;;
20623;SDS011;10471;42.736;23.346;2023-09-12T09:21:35;5.60;;;1.87;;
20623;SDS011;10471;42.736;23.346;2023-09-12T09:24:08;6.57;;;2.07;;
20623;SDS011;10471;42.736;23.346;2023-09-12T09:29:18;9.40;;;2.27;;
20623;SDS011;10471;42.736;23.346;2023-09-12T09:31:49;8.53;;;2.33;;
20623;SDS011;10471;42.736;23.346;2023-09-12T09:34:16;7.87;;;2.17;;
20623;SDS011;10471;42.736;23.346;2023-09-12T09:39:20;8.17;;;2.40;;
20623;SDS011;10471;42.736;23.346;2023-09-12T09:41:54;6.10;;;2.20;;
20623;SDS011;10471;42.736;23.346;2023-09-12T09:44:22;8.40;;;2.53;;
20623;SDS011;10471;42.736;23.346;2023-09-12T09:46:51;8.90;;;2.67;;
20623;SDS011;10471;42.736;23.346;2023-09-12T09:49:19;3.17;;;2.03;;
20623;SDS011;10471;42.736;23.346;2023-09-12T09:51:45;5.57;;;2.40;;
20623;SDS011;10471;42.736;23.346;2023-09-12T09:54:11;4.50;;;2.13;;
20623;SDS011;10471;42.736;23.346;2023-09-12T09:56:47;8.37;;;2.87;;
20623;SDS011;10471;42.736;23.346;2023-09-12T09:59:19;6.40;;;2.97;;
20623;SDS011;10471;42.736;23.346;2023-09-12T10:01:48;7.40;;;2.70;;
20623;SDS011;10471;42.736;23.346;2023-09-12T10:04:15;6.73;;;2.60;;
20623;SDS011;10471;42.736;23.346;2023-09-12T10:06:45;5.07;;;2.73;;
20623;SDS011;10471;42.736;23.346;2023-09-12T10:09:12;7.27;;;3.03;;
20623;SDS011;10471;42.736;23.346;2023-09-12T10:11:39;6.90;;;2.57;;
20623;SDS011;10471;42.736;23.346;2023-09-12T10:14:06;10.13;;;3.10;;
20623;SDS011;10471;42.736;23.346;2023-09-12T10:16:33;5.80;;;2.40;;
20623;SDS011;10471;42.736;23.346;2023-09-12T10:19:16;7.47;;;2.67;;
20623;SDS011;10471;42.736;23.346;2023-09-12T10:24:45;6.67;;;2.87;;
20623;SDS011;10471;42.736;23.346;2023-09-12T10:27:11;8.80;;;2.90;;
20623;SDS011;10471;42.736;23.346;2023-09-12T10:29:37;8.70;;;3.00;;
20623;SDS011;10471;42.736;23.346;2023-09-12T10:32:03;6.37;;;3.10;;
20623;SDS011;10471;42.736;23.346;2023-09-12T10:34:30;4.60;;;2.57;;
20623;SDS011;10471;42.736;23.346;2023-09-12T10:37:00;8.43;;;2.90;;
20623;SDS011;10471;42.736;23.346;2023-09-12T10:39:29;6.33;;;3.17;;
20623;SDS011;10471;42.736;23.346;2023-09-12T10:41:57;8.53;;;2.93;;
20623;SDS011;10471;42.736;23.346;2023-09-12T10:44:24;5.90;;;2.80;;
20623;SDS011;10471;42.736;23.346;2023-09-12T10:46:49;9.80;;;2.67;;
20623;SDS011;10471;42.736;23.346;2023-09-12T10:49:18;8.57;;;3.10;;
20623;SDS011;10471;42.736;23.346;2023-09-12T10:51:44;6.57;;;2.70;;
20623;SDS011;10471;42.736;23.346;2023-09-12T10:54:15;7.17;;;2.70;;
20623;SDS011;10471;42.736;23.346;2023-09-12T10:56:58;7.37;;;3.00;;
20623;SDS011;10471;42.736;23.346;2023-09-12T10:59:28;4.67;;;2.73;;
20623;SDS011;10471;42.736;23.346;2023-09-12T11:01:56;3.90;;;2.80;;
20623;SDS011;10471;42.736;23.346;2023-09-12T11:04:54;8.93;;;3.80;;
20623;SDS011;10471;42.736;23.346;2023-09-12T11:12:40;5.27;;;2.90;;
20623;SDS011;10471;42.736;23.346;2023-09-12T11:15:07;9.97;;;2.93;;
20623;SDS011;10471;42.736;23.346;2023-09-12T11:17:38;6.50;;;3.13;;
20623;SDS011;10471;42.736;23.346;2023-09-12T11:20:05;6.20;;;2.93;;
20623;SDS011;10471;42.736;23.346;2023-09-12T11:22:38;4.50;;;2.90;;
20623;SDS011;10471;42.736;23.346;2023-09-12T11:25:20;8.50;;;3.03;;
20623;SDS011;10471;42.736;23.346;2023-09-12T11:30:22;11.57;;;3.20;;
20623;SDS011;10471;42.736;23.346;2023-09-12T11:32:53;8.97;;;3.37;;
20623;SDS011;10471;42.736;23.346;2023-09-12T11:35:26;4.00;;;2.93;;
20623;SDS011;10471;42.736;23.346;2023-09-12T11:37:54;6.23;;;3.00;;
20623;SDS011;10471;42.736;23.346;2023-09-12T11:42:50;4.00;;;3.07;;
20623;SDS011;10471;42.736;23.346;2023-09-12T11:45:20;8.40;;;3.50;;
20623;SDS011;10471;42.736;23.346;2023-09-12T11:47:46;5.10;;;3.00;;
20623;SDS011;10471;42.736;23.346;2023-09-12T11:50:31;8.67;;;3.03;;
20623;SDS011;10471;42.736;23.346;2023-09-12T11:55:31;4.33;;;3.17;;
20623;SDS011;10471;42.736;23.346;2023-09-12T11:58:17;6.57;;;3.00;;
20623;SDS011;10471;42.736;23.346;2023-09-12T12:00:50;6.83;;;3.17;;
20623;SDS011;10471;42.736;23.346;2023-09-12T12:03:17;5.17;;;3.10;;
20623;SDS011;10471;42.736;23.346;2023-09-12T12:05:44;6.27;;;2.90;;
20623;SDS011;10471;42.736;23.346;2023-09-12T12:08:11;5.93;;;3.00;;
20623;SDS011;10471;42.736;23.346;2023-09-12T12:10:36;6.90;;;2.90;;
20623;SDS011;10471;42.736;23.346;2023-09-12T12:13:04;7.33;;;2.90;;
20623;SDS011;10471;42.736;23.346;2023-09-12T12:15:30;9.83;;;3.03;;
20623;SDS011;10471;42.736;23.346;2023-09-12T12:17:55;7.80;;;2.93;;
20623;SDS011;10471;42.736;23.346;2023-09-12T12:20:21;6.77;;;2.67;;
20623;SDS011;10471;42.736;23.346;2023-09-12T12:22:47;5.17;;;2.87;;
20623;SDS011;10471;42.736;23.346;2023-09-12T12:25:13;6.10;;;3.10;;
20623;SDS011;10471;42.736;23.346;2023-09-12T12:27:40;6.13;;;2.90;;
20623;SDS011;10471;42.736;23.346;2023-09-12T12:30:07;5.17;;;3.00;;
20623;SDS011;10471;42.736;23.346;2023-09-12T12:32:39;9.43;;;2.90;;
20623;SDS011;10471;42.736;23.346;2023-09-12T12:35:06;5.80;;;2.87;;
20623;SDS011;10471;42.736;23.346;2023-09-12T12:37:32;6.97;;;2.80;;
20623;SDS011;10471;42.736;23.346;2023-09-12T12:39:58;8.87;;;3.00;;
20623;SDS011;10471;42.736;23.346;2023-09-12T12:42:28;6.20;;;2.80;;
20623;SDS011;10471;42.736;23.346;2023-09-12T12:44:58;5.17;;;2.87;;
20623;SDS011;10471;42.736;23.346;2023-09-12T12:47:24;6.57;;;3.13;;
20623;SDS011;10471;42.736;23.346;2023-09-12T12:49:50;9.43;;;3.00;;
20623;SDS011;10471;42.736;23.346;2023-09-12T12:52:24;8.07;;;3.20;;
20623;SDS011;10471;42.736;23.346;2023-09-12T12:54:50;7.30;;;2.97;;
20623;SDS011;10471;42.736;23.346;2023-09-12T12:57:20;4.93;;;3.13;;
20623;SDS011;10471;42.736;23.346;2023-09-12T12:59:49;9.13;;;2.60;;
20623;SDS011;10471;42.736;23.346;2023-09-12T13:02:15;5.55;;;2.90;;
20623;SDS011;10471;42.736;23.346;2023-09-12T13:04:41;6.95;;;2.92;;
20623;SDS011;10471;42.736;23.346;2023-09-12T13:07:06;7.30;;;3.38;;
20623;SDS011;10471;42.736;23.346;2023-09-12T13:09:32;5.20;;;3.50;;
20623;SDS011;10471;42.736;23.346;2023-09-12T13:11:58;10.85;;;4.50;;
20623;SDS011;10471;42.736;23.346;2023-09-12T13:14:25;7.18;;;3.20;;
20623;SDS011;10471;42.736;23.346;2023-09-12T13:16:56;9.57;;;3.65;;
20623;SDS011;10471;42.736;23.346;2023-09-12T13:19:22;8.27;;;3.20;;
20623;SDS011;10471;42.736;23.346;2023-09-12T13:21:47;7.20;;;3.00;;
20623;SDS011;10471;42.736;23.346;2023-09-12T13:24:13;6.00;;;3.13;;
20623;SDS011;10471;42.736;23.346;2023-09-12T13:26:38;5.10;;;2.90;;
20623;SDS011;10471;42.736;23.346;2023-09-12T13:29:05;7.07;;;3.08;;
20623;SDS011;10471;42.736;23.346;2023-09-12T13:31:30;5.57;;;3.10;;
20623;SDS011;10471;42.736;23.346;2023-09-12T13:33:56;6.78;;;2.75;;
20623;SDS011;10471;42.736;23.346;2023-09-12T13:36:22;8.10;;;3.30;;
20623;SDS011;10471;42.736;23.346;2023-09-12T13:38:48;11.20;;;3.05;;
20623;SDS011;10471;42.736;23.346;2023-09-12T13:41:16;6.72;;;3.25;;
20623;SDS011;10471;42.736;23.346;2023-09-12T13:43:42;8.65;;;3.47;;
20623;SDS011;10471;42.736;23.346;2023-09-12T13:46:10;4.57;;;2.88;;
20623;SDS011;10471;42.736;23.346;2023-09-12T13:48:35;6.22;;;3.10;;
20623;SDS011;10471;42.736;23.346;2023-09-12T13:51:01;9.75;;;3.17;;
20623;SDS011;10471;42.736;23.346;2023-09-12T13:53:26;8.43;;;3.17;;
20623;SDS011;10471;42.736;23.346;2023-09-12T13:55:51;7.40;;;3.03;;
20623;SDS011;10471;42.736;23.346;2023-09-12T13:58:17;4.07;;;2.92;;
20623;SDS011;10471;42.736;23.346;2023-09-12T14:00:42;4.75;;;2.70;;
20623;SDS011;10471;42.736;23.346;2023-09-12T14:03:09;7.07;;;2.78;;
20623;SDS011;10471;42.736;23.346;2023-09-12T14:05:34;6.85;;;2.78;;
20623;SDS011;10471;42.736;23.346;2023-09-12T14:07:59;8.00;;;2.92;;
20623;SDS011;10471;42.736;23.346;2023-09-12T14:10:25;5.53;;;2.90;;
20623;SDS011;10471;42.736;23.346;2023-09-12T14:12:50;7.47;;;2.95;;
20623;SDS011;10471;42.736;23.346;2023-09-12T14:15:15;6.28;;;2.92;;
20623;SDS011;10471;42.736;23.346;2023-09-12T14:17:41;7.30;;;3.15;;
20623;SDS011;10471;42.736;23.346;2023-09-12T14:20:07;7.53;;;2.78;;
20623;SDS011;10471;42.736;23.346;2023-09-12T14:22:34;6.93;;;3.10;;
20623;SDS011;10471;42.736;23.346;2023-09-12T14:24:59;6.82;;;3.35;;
20623;SDS011;10471;42.736;23.346;2023-09-12T14:27:25;7.65;;;3.55;;
20623;SDS011;10471;42.736;23.346;2023-09-12T14:29:50;5.13;;;3.03;;
20623;SDS011;10471;42.736;23.346;2023-09-12T14:32:16;9.63;;;3.40;;
20623;SDS011;10471;42.736;23.346;2023-09-12T14:34:41;6.10;;;3.25;;
20623;SDS011;10471;42.736;23.346;2023-09-12T14:37:06;8.73;;;3.47;;
20623;SDS011;10471;42.736;23.346;2023-09-12T14:39:32;5.80;;;3.20;;
20623;SDS011;10471;42.736;23.346;2023-09-12T14:41:58;10.38;;;3.33;;
20623;SDS011;10471;42.736;23.346;2023-09-12T14:44:24;7.20;;;3.33;;
20623;SDS011;10471;42.736;23.346;2023-09-12T14:46:50;6.00;;;3.38;;
20623;SDS011;10471;42.736;23.346;2023-09-12T14:49:16;7.40;;;3.30;;